• Join FlightAware (Why Join?)
  • Login
  • US Flag 
09:44AM EDT


 

Airport Tracker/Info


-or-


 

Live Flight TrackerFlight Track Log ✈ DAL1214 ✈ 04-Oct-2013 ✈ KCAK - KATL

Flight Track Log - Related Links

Times and Time Zones

All times are in EDT time to prevent confusion due to time zone crossing. See the DAL1214 flight status page for this flight to view local times or setup timezone preferences in your user account.

Time Position Orientation Groundspeed Altitude Reporting Facility
EDT Latitude Longitude Course Direction KTS MPH feet Rate Location/Type
03:20PM 40.8781 -81.4733 176° South 186 214 2,500  Level Indianapolis Center
03:21PM 40.8039 -81.4844 186° South 236 272 5,000 2,460 Climbing Cleveland Center
03:22PM 40.7344 -81.5119 197° South 263 303 7,600 1,620 Climbing Cleveland Center
03:23PM 40.4707 -81.6446 173° South  Level Estimated
03:23PM 40.6542 -81.4964 172° South 289 333 8,400  Level Cleveland Center
03:24PM 40.3596 -81.5945 161° South  Level FlightAware Approximate
03:24PM 40.5808 -81.4428 151° Southeast 299 344 10,800  Level Cleveland Center
03:25PM 40.2489 -81.6457 176° South  Level Estimated
03:25PM 40.4925 -81.3719 149° Southeast 334 384 13,200  Level Cleveland Center
03:26PM 40.3967 -81.3436 167° South 362 417 15,500 2,040 Climbing Cleveland Center
03:27PM 40.3014 -81.3456 181° South 365 420 17,500 1,620 Climbing Indianapolis Center
03:28PM 40.1744 -81.3528 182° South 388 447 18,900 1,260 Climbing Indianapolis Center
03:29PM 40.0528 -81.3556 181° South 428 493 20,200 1,320 Climbing Indianapolis Center
03:30PM 39.9442 -81.3592 181° South 444 511 21,700 1,440 Climbing Indianapolis Center
03:31PM 39.7894 -81.3658 182° South 461 531 23,200 1,320 Climbing Indianapolis Center
03:33PM 39.6547 -81.3689 181° South 479 551 24,500 1,440 Climbing Indianapolis Center
03:34PM 39.5172 -81.3731 181° South 491 565 26,200 1,680 Climbing Indianapolis Center
03:35PM 39.3861 -81.3944 187° South 477 549 28,000 1,620 Climbing Indianapolis Center
03:36PM 39.2608 -81.4414 196° South 469 540 29,600 1,380 Climbing Indianapolis Center
03:37PM 39.1375 -81.4850 195° South 460 529 30,900 1,260 Climbing Indianapolis Center
03:38PM 38.9900 -81.5408 196° South 461 531 32,300 1,020 Climbing Indianapolis Center
03:39PM 38.8700 -81.5853 196° South 453 521 33,100 720 Climbing Indianapolis Center
03:40PM 38.7419 -81.6294 195° South 456 525 33,900 420 Climbing Indianapolis Center
03:41PM 38.6194 -81.6717 195° South 455 524 34,000  Climbing Indianapolis Center
03:42PM 38.4850 -81.7231 197° South 457 526 34,000  Level Indianapolis Center
03:43PM 38.3628 -81.7694 197° South 459 528 34,000  Level Indianapolis Center
03:44PM 38.2461 -81.8289 202° Southwest 453 521 34,000  Level Indianapolis Center
03:45PM 38.1292 -81.8867 201° Southwest 451 519 34,000  Level Indianapolis Center
03:46PM 38.0125 -81.9464 202° Southwest 450 518 34,000  Level Indianapolis Center
03:47PM 37.8969 -82.0036 201° Southwest 447 514 34,000  Level Indianapolis Center
03:48PM 37.7700 -82.0686 202° Southwest 450 518 34,000  Level Indianapolis Center
03:49PM 37.6364 -82.1375 202° Southwest 446 513 34,000  Level Indianapolis Center
03:50PM 37.5214 -82.1958 202° Southwest 445 512 34,000  Level Indianapolis Center
03:51PM 37.4075 -82.2531 202° Southwest 439 505 34,000  Level Indianapolis Center
03:52PM 37.2900 -82.3114 202° Southwest 450 518 34,000  Level Indianapolis Center
03:53PM 37.1747 -82.3686 202° Southwest 445 512 34,000  Level Indianapolis Center
03:54PM 37.0583 -82.4261 202° Southwest 445 512 34,000  Level Indianapolis Center
03:55PM 36.9222 -82.4925 201° Southwest 447 514 34,000  Level Indianapolis Center
03:56PM 36.8042 -82.5494 201° Southwest 450 518 34,000  Level Indianapolis Center
03:57PM 36.6869 -82.6094 202° Southwest 448 516 34,000  Level Indianapolis Center
03:58PM 36.5694 -82.6675 202° Southwest 449 517 34,000  Level Indianapolis Center
03:59PM 36.4531 -82.7242 201° Southwest 447 514 34,000  Level Indianapolis Center
04:01PM 36.2897 -82.8050 202° Southwest 451 519 34,000  Level Atlanta Center
04:02PM 36.1756 -82.8606 201° Southwest 444 511 34,000  Level Atlanta Center
04:03PM 36.0572 -82.9189 202° Southwest 450 518 34,000  Level Atlanta Center
04:04PM 35.9411 -82.9744 201° Southwest 450 518 34,000  Level Atlanta Center
04:05PM 35.8247 -83.0322 202° Southwest 450 518 34,000  Level Atlanta Center
04:06PM 35.7019 -83.0694 194° South 450 518 34,000  Level Atlanta Center
04:07PM 35.5769 -83.0992 191° South 462 532 34,000 -300 Level Atlanta Center
04:08PM 35.4542 -83.1414 196° South 462 532 33,500 -1,260 Descending Atlanta Center
04:09PM 35.3419 -83.2036 204° Southwest 455 524 31,500 -2,100 Descending Atlanta Center
04:10PM 35.2256 -83.2633 203° Southwest 455 524 29,400 -2,220 Descending Atlanta Center
04:11PM 35.0944 -83.3306 203° Southwest 462 532 27,100 -1,980 Descending Atlanta Center
04:12PM 34.9739 -83.3925 203° Southwest 469 540 25,500 -1,620 Descending Atlanta Center
04:13PM 34.8572 -83.4567 204° Southwest 464 534 23,900 -1,500 Descending Atlanta Center
04:14PM 34.7428 -83.5156 203° Southwest 459 528 22,600 -1,380 Descending Atlanta Center
04:15PM 34.6428 -83.5642 202° Southwest 447 514 21,200 -1,440 Descending Atlanta Center
04:16PM 34.5325 -83.6203 203° Southwest 441 507 19,800 -1,260 Descending Atlanta Center
04:17PM 34.4239 -83.6711 201° Southwest 424 488 18,700 -1,500 Descending Atlanta Center
04:18PM 34.3197 -83.7269 204° Southwest 417 480 16,900 -1,860 Descending Atlanta Center
04:19PM 34.1500 -83.8167 204° Southwest 367 422 14,000 -1,140 Descending Atlanta TRACON
04:20PM 34.0667 -83.8667 206° Southwest 435 501 14,000 -480 Level Atlanta TRACON
04:21PM 33.9833 -83.9500 220° Southwest 353 406 13,100 -1,020 Descending Atlanta TRACON
04:22PM 33.9000 -84.0167 214° Southwest 351 404 12,000 -600 Descending Atlanta TRACON
04:23PM 33.8333 -84.0667 212° Southwest 361 415 12,000  Level Atlanta TRACON
04:24PM 33.7858 -84.1014 211° Southwest 367 422 12,000  Level Atlanta Center
04:25PM 33.7317 -84.1861 232° Southwest 336 387 12,000  Level Atlanta Center
04:25PM 33.7333 -84.2500 272° West 291 335 12,000 -480 Level Atlanta TRACON
04:26PM 33.7333 -84.3333 270° West 291 335 11,300 -1,320 Descending Atlanta TRACON
04:27PM 33.7333 -84.4333 270° West 296 341 9,500 -1,680 Descending Atlanta TRACON
04:28PM 33.7333 -84.5167 270° West 281 323 8,000 -1,500 Descending Atlanta TRACON
04:29PM 33.7333 -84.6333 270° West 265 305 6,400 -1,200 Descending Atlanta TRACON
04:30PM 33.6833 -84.6667 209° Southwest 232 267 5,500 -1,260 Descending Atlanta TRACON
04:31PM 33.6500 -84.6167 129° Southeast 211 243 3,900 -1,320 Descending Atlanta TRACON
04:32PM 33.6500 -84.5500 90° East 181 208 2,900 -900 Descending Atlanta TRACON
04:33PM 33.6500 -84.5000 90° East 149 171 2,100 -840 Descending Atlanta TRACON
04:34PM 33.6500 -84.4500 90° East 159 183 1,300 -900 Descending Atlanta TRACON